sensor_id;sensor_type;location;lat;lon;timestamp;P1;durP1;ratioP1;P2;durP2;ratioP2
14847;SDS011;7516;43.570;1.448;2023-02-01T00:00:01;2.13;;;1.60;;
14847;SDS011;7516;43.570;1.448;2023-02-01T00:02:29;1.67;;;1.30;;
14847;SDS011;7516;43.570;1.448;2023-02-01T00:04:58;1.87;;;1.60;;
14847;SDS011;7516;43.570;1.448;2023-02-01T00:07:26;2.00;;;1.20;;
14847;SDS011;7516;43.570;1.448;2023-02-01T00:09:53;1.60;;;1.33;;
14847;SDS011;7516;43.570;1.448;2023-02-01T00:12:21;1.33;;;1.20;;
14847;SDS011;7516;43.570;1.448;2023-02-01T00:14:48;1.97;;;1.50;;
14847;SDS011;7516;43.570;1.448;2023-02-01T00:17:16;1.93;;;1.50;;
14847;SDS011;7516;43.570;1.448;2023-02-01T00:19:43;1.60;;;1.40;;
14847;SDS011;7516;43.570;1.448;2023-02-01T00:22:12;1.60;;;1.40;;
14847;SDS011;7516;43.570;1.448;2023-02-01T00:24:40;1.90;;;1.70;;
14847;SDS011;7516;43.570;1.448;2023-02-01T00:27:07;3.17;;;2.00;;
14847;SDS011;7516;43.570;1.448;2023-02-01T00:29:35;2.27;;;1.80;;
14847;SDS011;7516;43.570;1.448;2023-02-01T00:32:02;2.10;;;1.90;;
14847;SDS011;7516;43.570;1.448;2023-02-01T00:34:30;2.50;;;1.90;;
14847;SDS011;7516;43.570;1.448;2023-02-01T00:36:57;2.60;;;1.97;;
14847;SDS011;7516;43.570;1.448;2023-02-01T00:39:27;2.37;;;1.90;;
14847;SDS011;7516;43.570;1.448;2023-02-01T00:41:54;2.70;;;1.93;;
14847;SDS011;7516;43.570;1.448;2023-02-01T00:44:21;2.97;;;2.30;;
14847;SDS011;7516;43.570;1.448;2023-02-01T00:46:49;2.77;;;2.20;;
14847;SDS011;7516;43.570;1.448;2023-02-01T00:49:17;2.43;;;1.90;;
14847;SDS011;7516;43.570;1.448;2023-02-01T00:51:44;2.63;;;2.03;;
14847;SDS011;7516;43.570;1.448;2023-02-01T00:54:12;2.97;;;2.00;;
14847;SDS011;7516;43.570;1.448;2023-02-01T00:56:41;3.13;;;2.33;;
14847;SDS011;7516;43.570;1.448;2023-02-01T00:59:10;2.23;;;1.93;;
14847;SDS011;7516;43.570;1.448;2023-02-01T01:01:38;3.80;;;2.13;;
14847;SDS011;7516;43.570;1.448;2023-02-01T01:04:06;2.57;;;2.17;;
14847;SDS011;7516;43.570;1.448;2023-02-01T01:06:34;2.40;;;2.03;;
14847;SDS011;7516;43.570;1.448;2023-02-01T01:09:02;2.30;;;1.77;;
14847;SDS011;7516;43.570;1.448;2023-02-01T01:11:32;2.77;;;2.30;;
14847;SDS011;7516;43.570;1.448;2023-02-01T01:14:02;2.80;;;2.20;;
14847;SDS011;7516;43.570;1.448;2023-02-01T01:16:32;2.30;;;1.90;;
14847;SDS011;7516;43.570;1.448;2023-02-01T01:19:00;2.17;;;1.93;;
14847;SDS011;7516;43.570;1.448;2023-02-01T01:21:28;3.13;;;1.90;;
14847;SDS011;7516;43.570;1.448;2023-02-01T01:23:56;2.50;;;2.10;;
14847;SDS011;7516;43.570;1.448;2023-02-01T01:26:24;2.53;;;1.83;;
14847;SDS011;7516;43.570;1.448;2023-02-01T01:28:54;2.20;;;1.63;;
14847;SDS011;7516;43.570;1.448;2023-02-01T01:31:23;2.60;;;1.77;;
14847;SDS011;7516;43.570;1.448;2023-02-01T01:33:52;2.67;;;2.00;;
14847;SDS011;7516;43.570;1.448;2023-02-01T01:36:21;2.27;;;1.70;;
14847;SDS011;7516;43.570;1.448;2023-02-01T01:38:49;4.00;;;1.90;;
14847;SDS011;7516;43.570;1.448;2023-02-01T01:41:17;2.70;;;1.70;;
14847;SDS011;7516;43.570;1.448;2023-02-01T01:43:47;2.30;;;1.50;;
14847;SDS011;7516;43.570;1.448;2023-02-01T01:46:18;2.67;;;1.97;;
14847;SDS011;7516;43.570;1.448;2023-02-01T01:48:48;2.30;;;1.80;;
14847;SDS011;7516;43.570;1.448;2023-02-01T01:51:20;2.70;;;2.00;;
14847;SDS011;7516;43.570;1.448;2023-02-01T01:53:51;2.40;;;1.93;;
14847;SDS011;7516;43.570;1.448;2023-02-01T01:56:22;2.50;;;1.90;;
14847;SDS011;7516;43.570;1.448;2023-02-01T01:58:51;2.77;;;1.90;;
14847;SDS011;7516;43.570;1.448;2023-02-01T02:01:20;2.40;;;1.80;;
14847;SDS011;7516;43.570;1.448;2023-02-01T02:03:49;2.97;;;2.10;;
14847;SDS011;7516;43.570;1.448;2023-02-01T02:06:20;2.70;;;2.10;;
14847;SDS011;7516;43.570;1.448;2023-02-01T02:09:03;2.20;;;1.67;;
14847;SDS011;7516;43.570;1.448;2023-02-01T02:11:30;2.40;;;1.80;;
14847;SDS011;7516;43.570;1.448;2023-02-01T02:13:58;2.83;;;1.93;;
14847;SDS011;7516;43.570;1.448;2023-02-01T02:16:31;2.33;;;1.77;;
14847;SDS011;7516;43.570;1.448;2023-02-01T02:19:16;2.40;;;1.70;;
14847;SDS011;7516;43.570;1.448;2023-02-01T02:22:19;2.23;;;1.70;;
14847;SDS011;7516;43.570;1.448;2023-02-01T02:25:24;2.60;;;2.00;;
14847;SDS011;7516;43.570;1.448;2023-02-01T02:28:17;2.23;;;1.90;;
14847;SDS011;7516;43.570;1.448;2023-02-01T02:31:04;2.23;;;1.87;;
14847;SDS011;7516;43.570;1.448;2023-02-01T02:34:00;3.43;;;1.93;;
14847;SDS011;7516;43.570;1.448;2023-02-01T02:36:40;2.40;;;1.83;;
14847;SDS011;7516;43.570;1.448;2023-02-01T02:39:16;2.60;;;2.00;;
14847;SDS011;7516;43.570;1.448;2023-02-01T02:41:53;3.07;;;2.03;;
14847;SDS011;7516;43.570;1.448;2023-02-01T02:44:46;3.53;;;1.80;;
14847;SDS011;7516;43.570;1.448;2023-02-01T02:47:36;2.03;;;1.70;;
14847;SDS011;7516;43.570;1.448;2023-02-01T02:50:17;1.90;;;1.50;;
14847;SDS011;7516;43.570;1.448;2023-02-01T02:53:09;2.67;;;1.80;;
14847;SDS011;7516;43.570;1.448;2023-02-01T02:55:57;2.20;;;1.63;;
14847;SDS011;7516;43.570;1.448;2023-02-01T02:58:45;3.10;;;1.67;;
14847;SDS011;7516;43.570;1.448;2023-02-01T03:01:31;2.43;;;1.40;;
14847;SDS011;7516;43.570;1.448;2023-02-01T03:04:17;2.33;;;1.43;;
14847;SDS011;7516;43.570;1.448;2023-02-01T03:06:46;2.23;;;1.50;;
14847;SDS011;7516;43.570;1.448;2023-02-01T03:09:16;2.30;;;1.70;;
14847;SDS011;7516;43.570;1.448;2023-02-01T03:11:49;2.20;;;1.90;;
14847;SDS011;7516;43.570;1.448;2023-02-01T03:14:56;2.37;;;1.80;;
14847;SDS011;7516;43.570;1.448;2023-02-01T03:17:30;2.20;;;1.60;;
14847;SDS011;7516;43.570;1.448;2023-02-01T03:20:02;1.63;;;1.40;;
14847;SDS011;7516;43.570;1.448;2023-02-01T03:22:33;1.77;;;1.60;;
14847;SDS011;7516;43.570;1.448;2023-02-01T03:25:04;2.23;;;1.83;;
14847;SDS011;7516;43.570;1.448;2023-02-01T03:27:37;2.20;;;1.60;;
14847;SDS011;7516;43.570;1.448;2023-02-01T03:30:13;2.63;;;1.50;;
14847;SDS011;7516;43.570;1.448;2023-02-01T03:32:47;2.07;;;1.60;;
14847;SDS011;7516;43.570;1.448;2023-02-01T03:35:25;2.13;;;1.80;;
14847;SDS011;7516;43.570;1.448;2023-02-01T03:37:59;1.80;;;1.60;;
14847;SDS011;7516;43.570;1.448;2023-02-01T03:40:32;2.10;;;1.70;;
14847;SDS011;7516;43.570;1.448;2023-02-01T03:43:04;1.50;;;1.33;;
14847;SDS011;7516;43.570;1.448;2023-02-01T03:45:35;2.10;;;1.70;;
14847;SDS011;7516;43.570;1.448;2023-02-01T03:48:09;2.00;;;1.50;;
14847;SDS011;7516;43.570;1.448;2023-02-01T03:50:39;2.10;;;1.80;;
14847;SDS011;7516;43.570;1.448;2023-02-01T03:53:16;2.47;;;1.70;;
14847;SDS011;7516;43.570;1.448;2023-02-01T03:55:46;2.37;;;1.80;;
14847;SDS011;7516;43.570;1.448;2023-02-01T03:58:16;1.60;;;1.40;;
14847;SDS011;7516;43.570;1.448;2023-02-01T04:00:46;2.30;;;1.73;;
14847;SDS011;7516;43.570;1.448;2023-02-01T04:03:18;2.53;;;1.70;;
14847;SDS011;7516;43.570;1.448;2023-02-01T04:05:46;2.20;;;1.63;;
14847;SDS011;7516;43.570;1.448;2023-02-01T04:08:15;1.77;;;1.50;;
14847;SDS011;7516;43.570;1.448;2023-02-01T04:10:44;2.13;;;1.93;;
14847;SDS011;7516;43.570;1.448;2023-02-01T04:13:12;1.80;;;1.40;;
14847;SDS011;7516;43.570;1.448;2023-02-01T04:15:40;1.73;;;1.60;;
14847;SDS011;7516;43.570;1.448;2023-02-01T04:18:08;2.10;;;1.70;;
14847;SDS011;7516;43.570;1.448;2023-02-01T04:20:35;2.40;;;1.80;;
14847;SDS011;7516;43.570;1.448;2023-02-01T04:23:03;2.60;;;1.80;;
14847;SDS011;7516;43.570;1.448;2023-02-01T04:25:32;1.93;;;1.57;;
14847;SDS011;7516;43.570;1.448;2023-02-01T04:27:59;2.00;;;1.67;;
14847;SDS011;7516;43.570;1.448;2023-02-01T04:30:27;2.13;;;1.80;;
14847;SDS011;7516;43.570;1.448;2023-02-01T04:32:54;2.27;;;1.57;;
14847;SDS011;7516;43.570;1.448;2023-02-01T04:35:22;2.70;;;1.80;;
14847;SDS011;7516;43.570;1.448;2023-02-01T04:37:49;2.10;;;1.60;;
14847;SDS011;7516;43.570;1.448;2023-02-01T04:40:17;2.07;;;1.47;;
14847;SDS011;7516;43.570;1.448;2023-02-01T04:42:46;2.57;;;1.77;;
14847;SDS011;7516;43.570;1.448;2023-02-01T04:45:13;1.90;;;1.70;;
14847;SDS011;7516;43.570;1.448;2023-02-01T04:47:41;2.03;;;1.70;;
14847;SDS011;7516;43.570;1.448;2023-02-01T04:50:09;2.37;;;1.70;;
14847;SDS011;7516;43.570;1.448;2023-02-01T04:52:37;2.07;;;1.70;;
14847;SDS011;7516;43.570;1.448;2023-02-01T04:55:04;2.50;;;1.87;;
14847;SDS011;7516;43.570;1.448;2023-02-01T04:57:32;1.93;;;1.60;;
14847;SDS011;7516;43.570;1.448;2023-02-01T05:00:01;2.13;;;1.63;;
14847;SDS011;7516;43.570;1.448;2023-02-01T05:02:30;2.13;;;1.80;;
14847;SDS011;7516;43.570;1.448;2023-02-01T05:04:57;2.00;;;1.80;;
14847;SDS011;7516;43.570;1.448;2023-02-01T05:07:25;1.80;;;1.50;;
14847;SDS011;7516;43.570;1.448;2023-02-01T05:09:52;2.30;;;1.40;;
14847;SDS011;7516;43.570;1.448;2023-02-01T05:12:20;2.07;;;1.60;;
14847;SDS011;7516;43.570;1.448;2023-02-01T05:15:07;2.00;;;1.60;;
14847;SDS011;7516;43.570;1.448;2023-02-01T05:17:34;1.67;;;1.43;;
14847;SDS011;7516;43.570;1.448;2023-02-01T05:20:02;1.87;;;1.60;;
14847;SDS011;7516;43.570;1.448;2023-02-01T05:22:30;2.03;;;1.60;;
14847;SDS011;7516;43.570;1.448;2023-02-01T05:24:58;1.97;;;1.60;;
14847;SDS011;7516;43.570;1.448;2023-02-01T05:27:25;1.90;;;1.63;;
14847;SDS011;7516;43.570;1.448;2023-02-01T05:29:55;2.23;;;1.57;;
14847;SDS011;7516;43.570;1.448;2023-02-01T05:32:23;1.97;;;1.60;;
14847;SDS011;7516;43.570;1.448;2023-02-01T05:34:51;2.10;;;1.63;;
14847;SDS011;7516;43.570;1.448;2023-02-01T05:37:18;2.00;;;1.63;;
14847;SDS011;7516;43.570;1.448;2023-02-01T05:39:46;1.90;;;1.50;;
14847;SDS011;7516;43.570;1.448;2023-02-01T05:42:13;1.90;;;1.53;;
14847;SDS011;7516;43.570;1.448;2023-02-01T05:44:41;2.57;;;1.70;;
14847;SDS011;7516;43.570;1.448;2023-02-01T05:47:09;1.60;;;1.40;;
14847;SDS011;7516;43.570;1.448;2023-02-01T05:49:38;3.63;;;1.63;;
14847;SDS011;7516;43.570;1.448;2023-02-01T05:52:06;2.87;;;1.90;;
14847;SDS011;7516;43.570;1.448;2023-02-01T05:54:34;1.90;;;1.70;;
14847;SDS011;7516;43.570;1.448;2023-02-01T05:57:01;2.00;;;1.60;;
14847;SDS011;7516;43.570;1.448;2023-02-01T05:59:29;2.03;;;1.57;;
14847;SDS011;7516;43.570;1.448;2023-02-01T06:01:56;1.97;;;1.43;;
14847;SDS011;7516;43.570;1.448;2023-02-01T06:04:24;2.80;;;1.87;;
14847;SDS011;7516;43.570;1.448;2023-02-01T06:06:53;3.53;;;1.40;;
14847;SDS011;7516;43.570;1.448;2023-02-01T06:09:20;2.40;;;1.63;;
14847;SDS011;7516;43.570;1.448;2023-02-01T06:11:48;2.37;;;1.70;;
14847;SDS011;7516;43.570;1.448;2023-02-01T06:14:15;2.07;;;1.60;;
14847;SDS011;7516;43.570;1.448;2023-02-01T06:16:43;1.83;;;1.70;;
14847;SDS011;7516;43.570;1.448;2023-02-01T06:19:11;1.73;;;1.50;;
14847;SDS011;7516;43.570;1.448;2023-02-01T06:21:39;2.20;;;1.50;;
14847;SDS011;7516;43.570;1.448;2023-02-01T06:24:08;1.50;;;1.40;;
14847;SDS011;7516;43.570;1.448;2023-02-01T06:26:36;1.50;;;1.30;;
14847;SDS011;7516;43.570;1.448;2023-02-01T06:29:04;2.10;;;1.50;;
14847;SDS011;7516;43.570;1.448;2023-02-01T06:31:31;3.43;;;1.80;;
14847;SDS011;7516;43.570;1.448;2023-02-01T06:33:59;2.40;;;1.50;;
14847;SDS011;7516;43.570;1.448;2023-02-01T06:36:28;2.27;;;1.70;;
14847;SDS011;7516;43.570;1.448;2023-02-01T06:38:55;2.07;;;1.40;;
14847;SDS011;7516;43.570;1.448;2023-02-01T06:41:25;2.37;;;1.70;;
14847;SDS011;7516;43.570;1.448;2023-02-01T06:43:53;2.37;;;1.87;;
14847;SDS011;7516;43.570;1.448;2023-02-01T06:46:21;3.27;;;2.03;;
14847;SDS011;7516;43.570;1.448;2023-02-01T06:48:48;2.67;;;1.60;;
14847;SDS011;7516;43.570;1.448;2023-02-01T06:51:18;2.57;;;1.73;;
14847;SDS011;7516;43.570;1.448;2023-02-01T06:53:47;1.90;;;1.60;;
14847;SDS011;7516;43.570;1.448;2023-02-01T06:56:15;2.70;;;1.93;;
14847;SDS011;7516;43.570;1.448;2023-02-01T06:58:44;2.60;;;1.93;;
14847;SDS011;7516;43.570;1.448;2023-02-01T07:01:12;2.53;;;1.77;;
14847;SDS011;7516;43.570;1.448;2023-02-01T07:03:40;3.67;;;1.97;;
14847;SDS011;7516;43.570;1.448;2023-02-01T07:06:08;2.23;;;1.70;;
14847;SDS011;7516;43.570;1.448;2023-02-01T07:08:37;2.57;;;1.80;;
14847;SDS011;7516;43.570;1.448;2023-02-01T07:11:05;2.77;;;2.00;;
14847;SDS011;7516;43.570;1.448;2023-02-01T07:13:34;2.80;;;2.00;;
14847;SDS011;7516;43.570;1.448;2023-02-01T07:16:04;2.13;;;1.77;;
14847;SDS011;7516;43.570;1.448;2023-02-01T07:18:37;5.10;;;2.83;;
14847;SDS011;7516;43.570;1.448;2023-02-01T07:21:05;3.00;;;2.50;;
14847;SDS011;7516;43.570;1.448;2023-02-01T07:23:33;3.73;;;2.60;;
14847;SDS011;7516;43.570;1.448;2023-02-01T07:26:01;5.23;;;2.77;;
14847;SDS011;7516;43.570;1.448;2023-02-01T07:28:31;3.83;;;2.20;;
14847;SDS011;7516;43.570;1.448;2023-02-01T07:31:05;4.47;;;2.70;;
14847;SDS011;7516;43.570;1.448;2023-02-01T07:33:34;3.60;;;2.50;;
14847;SDS011;7516;43.570;1.448;2023-02-01T07:36:02;2.50;;;2.10;;
14847;SDS011;7516;43.570;1.448;2023-02-01T07:38:31;4.50;;;3.00;;
14847;SDS011;7516;43.570;1.448;2023-02-01T07:40:59;4.23;;;3.47;;
14847;SDS011;7516;43.570;1.448;2023-02-01T07:43:28;6.03;;;3.03;;
14847;SDS011;7516;43.570;1.448;2023-02-01T07:45:57;6.93;;;3.50;;
14847;SDS011;7516;43.570;1.448;2023-02-01T07:48:26;5.67;;;3.13;;
14847;SDS011;7516;43.570;1.448;2023-02-01T07:50:57;5.33;;;3.00;;
14847;SDS011;7516;43.570;1.448;2023-02-01T07:53:25;4.80;;;2.60;;
14847;SDS011;7516;43.570;1.448;2023-02-01T07:55:54;5.43;;;3.40;;
14847;SDS011;7516;43.570;1.448;2023-02-01T07:58:22;3.83;;;2.93;;
14847;SDS011;7516;43.570;1.448;2023-02-01T08:00:50;5.53;;;3.10;;
14847;SDS011;7516;43.570;1.448;2023-02-01T08:03:37;4.43;;;3.03;;
14847;SDS011;7516;43.570;1.448;2023-02-01T08:06:04;4.17;;;2.40;;
14847;SDS011;7516;43.570;1.448;2023-02-01T08:08:32;4.43;;;3.00;;
14847;SDS011;7516;43.570;1.448;2023-02-01T08:11:00;6.83;;;3.07;;
14847;SDS011;7516;43.570;1.448;2023-02-01T08:13:29;4.67;;;3.30;;
14847;SDS011;7516;43.570;1.448;2023-02-01T08:15:57;4.03;;;2.50;;
14847;SDS011;7516;43.570;1.448;2023-02-01T08:18:25;3.90;;;2.90;;
14847;SDS011;7516;43.570;1.448;2023-02-01T08:20:54;5.57;;;3.00;;
14847;SDS011;7516;43.570;1.448;2023-02-01T08:23:22;2.93;;;2.30;;
14847;SDS011;7516;43.570;1.448;2023-02-01T08:25:49;2.53;;;2.10;;
14847;SDS011;7516;43.570;1.448;2023-02-01T08:28:17;3.40;;;2.17;;
14847;SDS011;7516;43.570;1.448;2023-02-01T08:30:45;4.33;;;2.50;;
14847;SDS011;7516;43.570;1.448;2023-02-01T08:33:12;4.30;;;2.57;;
14847;SDS011;7516;43.570;1.448;2023-02-01T08:35:40;5.90;;;3.07;;
14847;SDS011;7516;43.570;1.448;2023-02-01T08:38:09;3.57;;;2.60;;
14847;SDS011;7516;43.570;1.448;2023-02-01T08:40:36;3.30;;;2.40;;
14847;SDS011;7516;43.570;1.448;2023-02-01T08:43:04;2.50;;;2.30;;
14847;SDS011;7516;43.570;1.448;2023-02-01T08:45:31;3.67;;;2.73;;
14847;SDS011;7516;43.570;1.448;2023-02-01T08:47:59;4.97;;;2.70;;
14847;SDS011;7516;43.570;1.448;2023-02-01T08:50:26;3.97;;;2.73;;
14847;SDS011;7516;43.570;1.448;2023-02-01T08:52:54;3.97;;;2.60;;
14847;SDS011;7516;43.570;1.448;2023-02-01T08:55:22;3.53;;;2.50;;
14847;SDS011;7516;43.570;1.448;2023-02-01T08:57:51;4.43;;;2.27;;
14847;SDS011;7516;43.570;1.448;2023-02-01T09:00:19;4.83;;;2.40;;
14847;SDS011;7516;43.570;1.448;2023-02-01T09:02:46;3.83;;;2.30;;
14847;SDS011;7516;43.570;1.448;2023-02-01T09:05:14;3.90;;;1.97;;
14847;SDS011;7516;43.570;1.448;2023-02-01T09:07:44;3.23;;;1.83;;
14847;SDS011;7516;43.570;1.448;2023-02-01T09:10:11;3.67;;;2.07;;
14847;SDS011;7516;43.570;1.448;2023-02-01T09:12:40;2.60;;;1.90;;
14847;SDS011;7516;43.570;1.448;2023-02-01T09:15:08;4.90;;;2.17;;
14847;SDS011;7516;43.570;1.448;2023-02-01T09:17:36;4.60;;;2.00;;
14847;SDS011;7516;43.570;1.448;2023-02-01T09:20:04;3.57;;;2.17;;
14847;SDS011;7516;43.570;1.448;2023-02-01T09:22:31;4.10;;;1.80;;
14847;SDS011;7516;43.570;1.448;2023-02-01T09:24:59;6.43;;;2.00;;
14847;SDS011;7516;43.570;1.448;2023-02-01T09:27:26;7.13;;;2.60;;
14847;SDS011;7516;43.570;1.448;2023-02-01T09:29:55;5.50;;;2.50;;
14847;SDS011;7516;43.570;1.448;2023-02-01T09:32:23;4.50;;;2.30;;
14847;SDS011;7516;43.570;1.448;2023-02-01T09:34:51;6.23;;;2.30;;
14847;SDS011;7516;43.570;1.448;2023-02-01T09:37:19;4.80;;;1.80;;
14847;SDS011;7516;43.570;1.448;2023-02-01T09:39:47;5.90;;;2.30;;
14847;SDS011;7516;43.570;1.448;2023-02-01T09:42:16;9.90;;;2.60;;
14847;SDS011;7516;43.570;1.448;2023-02-01T09:44:57;5.10;;;2.60;;
14847;SDS011;7516;43.570;1.448;2023-02-01T09:47:37;5.57;;;2.80;;
14847;SDS011;7516;43.570;1.448;2023-02-01T09:50:13;7.00;;;2.47;;
14847;SDS011;7516;43.570;1.448;2023-02-01T09:52:45;7.93;;;2.40;;
14847;SDS011;7516;43.570;1.448;2023-02-01T09:55:20;6.67;;;2.30;;
14847;SDS011;7516;43.570;1.448;2023-02-01T09:57:56;7.13;;;2.33;;
14847;SDS011;7516;43.570;1.448;2023-02-01T10:00:30;5.03;;;1.60;;
14847;SDS011;7516;43.570;1.448;2023-02-01T10:03:02;6.97;;;2.10;;
14847;SDS011;7516;43.570;1.448;2023-02-01T10:05:36;8.43;;;2.33;;
14847;SDS011;7516;43.570;1.448;2023-02-01T10:08:30;5.20;;;2.03;;
14847;SDS011;7516;43.570;1.448;2023-02-01T10:11:09;5.17;;;1.47;;
14847;SDS011;7516;43.570;1.448;2023-02-01T10:13:50;6.83;;;2.37;;
14847;SDS011;7516;43.570;1.448;2023-02-01T10:16:31;3.80;;;1.60;;
14847;SDS011;7516;43.570;1.448;2023-02-01T10:19:18;6.10;;;2.20;;
14847;SDS011;7516;43.570;1.448;2023-02-01T10:21:58;5.30;;;1.80;;
14847;SDS011;7516;43.570;1.448;2023-02-01T10:24:38;3.73;;;1.53;;
14847;SDS011;7516;43.570;1.448;2023-02-01T10:27:12;7.90;;;2.70;;
14847;SDS011;7516;43.570;1.448;2023-02-01T10:29:44;9.47;;;2.20;;
14847;SDS011;7516;43.570;1.448;2023-02-01T10:32:17;6.83;;;1.97;;
14847;SDS011;7516;43.570;1.448;2023-02-01T10:34:48;8.33;;;2.70;;
14847;SDS011;7516;43.570;1.448;2023-02-01T10:37:27;6.17;;;1.83;;
14847;SDS011;7516;43.570;1.448;2023-02-01T10:39:56;8.47;;;2.30;;
14847;SDS011;7516;43.570;1.448;2023-02-01T10:42:27;5.70;;;1.87;;
14847;SDS011;7516;43.570;1.448;2023-02-01T10:44:57;7.60;;;2.10;;
14847;SDS011;7516;43.570;1.448;2023-02-01T10:47:30;9.93;;;2.03;;
14847;SDS011;7516;43.570;1.448;2023-02-01T10:50:00;8.00;;;2.30;;
14847;SDS011;7516;43.570;1.448;2023-02-01T10:52:40;7.73;;;1.90;;
14847;SDS011;7516;43.570;1.448;2023-02-01T10:57:56;6.40;;;1.77;;
14847;SDS011;7516;43.570;1.448;2023-02-01T11:00:24;5.07;;;1.40;;
14847;SDS011;7516;43.570;1.448;2023-02-01T11:02:53;8.63;;;1.93;;
14847;SDS011;7516;43.570;1.448;2023-02-01T11:05:21;4.33;;;1.60;;
14847;SDS011;7516;43.570;1.448;2023-02-01T11:07:52;4.23;;;1.73;;
14847;SDS011;7516;43.570;1.448;2023-02-01T11:10:37;6.73;;;1.73;;
14847;SDS011;7516;43.570;1.448;2023-02-01T11:13:11;5.70;;;1.90;;
14847;SDS011;7516;43.570;1.448;2023-02-01T11:15:45;6.00;;;1.87;;
14847;SDS011;7516;43.570;1.448;2023-02-01T11:18:25;7.77;;;1.60;;
14847;SDS011;7516;43.570;1.448;2023-02-01T11:20:55;5.60;;;1.80;;
14847;SDS011;7516;43.570;1.448;2023-02-01T11:23:23;5.90;;;1.73;;
14847;SDS011;7516;43.570;1.448;2023-02-01T11:25:54;6.20;;;2.40;;
14847;SDS011;7516;43.570;1.448;2023-02-01T11:28:23;6.60;;;2.00;;
14847;SDS011;7516;43.570;1.448;2023-02-01T11:30:54;5.50;;;1.57;;
14847;SDS011;7516;43.570;1.448;2023-02-01T11:33:27;5.03;;;1.57;;
14847;SDS011;7516;43.570;1.448;2023-02-01T11:36:00;5.70;;;2.00;;
14847;SDS011;7516;43.570;1.448;2023-02-01T11:38:33;5.83;;;2.00;;
14847;SDS011;7516;43.570;1.448;2023-02-01T11:41:11;4.90;;;2.10;;
14847;SDS011;7516;43.570;1.448;2023-02-01T11:43:50;6.97;;;1.63;;
14847;SDS011;7516;43.570;1.448;2023-02-01T11:46:20;5.87;;;2.43;;
14847;SDS011;7516;43.570;1.448;2023-02-01T11:48:53;4.97;;;2.17;;
14847;SDS011;7516;43.570;1.448;2023-02-01T11:51:40;5.67;;;2.00;;
14847;SDS011;7516;43.570;1.448;2023-02-01T11:54:18;3.77;;;1.77;;
14847;SDS011;7516;43.570;1.448;2023-02-01T11:57:02;3.80;;;1.70;;
14847;SDS011;7516;43.570;1.448;2023-02-01T11:59:52;5.10;;;1.97;;
14847;SDS011;7516;43.570;1.448;2023-02-01T12:02:42;6.17;;;2.37;;
14847;SDS011;7516;43.570;1.448;2023-02-01T12:05:25;3.90;;;1.70;;
14847;SDS011;7516;43.570;1.448;2023-02-01T12:08:16;6.73;;;2.77;;
14847;SDS011;7516;43.570;1.448;2023-02-01T12:11:08;4.70;;;1.97;;
14847;SDS011;7516;43.570;1.448;2023-02-01T12:13:55;5.13;;;2.10;;
14847;SDS011;7516;43.570;1.448;2023-02-01T12:16:35;4.73;;;2.90;;
14847;SDS011;7516;43.570;1.448;2023-02-01T12:19:29;3.90;;;2.30;;
14847;SDS011;7516;43.570;1.448;2023-02-01T12:22:14;5.43;;;3.60;;
14847;SDS011;7516;43.570;1.448;2023-02-01T12:25:06;7.60;;;2.80;;
14847;SDS011;7516;43.570;1.448;2023-02-01T12:30:51;5.00;;;1.90;;
14847;SDS011;7516;43.570;1.448;2023-02-01T12:33:37;5.10;;;2.30;;
14847;SDS011;7516;43.570;1.448;2023-02-01T12:36:16;4.30;;;1.70;;
14847;SDS011;7516;43.570;1.448;2023-02-01T12:38:55;2.73;;;1.93;;
14847;SDS011;7516;43.570;1.448;2023-02-01T12:44:18;3.13;;;1.90;;
14847;SDS011;7516;43.570;1.448;2023-02-01T12:46:57;3.33;;;1.83;;
14847;SDS011;7516;43.570;1.448;2023-02-01T12:49:31;4.67;;;2.20;;
14847;SDS011;7516;43.570;1.448;2023-02-01T12:52:10;4.43;;;2.10;;
14847;SDS011;7516;43.570;1.448;2023-02-01T12:54:47;2.57;;;1.80;;
14847;SDS011;7516;43.570;1.448;2023-02-01T12:57:23;2.90;;;2.03;;
14847;SDS011;7516;43.570;1.448;2023-02-01T12:59:54;6.10;;;2.27;;
14847;SDS011;7516;43.570;1.448;2023-02-01T13:02:28;3.23;;;2.00;;
14847;SDS011;7516;43.570;1.448;2023-02-01T13:05:04;2.47;;;1.83;;
14847;SDS011;7516;43.570;1.448;2023-02-01T13:07:43;2.40;;;1.60;;
14847;SDS011;7516;43.570;1.448;2023-02-01T13:10:17;1.93;;;1.30;;
14847;SDS011;7516;43.570;1.448;2023-02-01T13:12:52;2.80;;;1.40;;
14847;SDS011;7516;43.570;1.448;2023-02-01T13:15:26;3.60;;;1.20;;
14847;SDS011;7516;43.570;1.448;2023-02-01T13:17:57;2.60;;;1.43;;
14847;SDS011;7516;43.570;1.448;2023-02-01T13:20:29;2.23;;;1.30;;
14847;SDS011;7516;43.570;1.448;2023-02-01T13:22:59;2.03;;;0.90;;
14847;SDS011;7516;43.570;1.448;2023-02-01T13:25:34;2.60;;;1.03;;
14847;SDS011;7516;43.570;1.448;2023-02-01T13:28:05;3.23;;;1.20;;
14847;SDS011;7516;43.570;1.448;2023-02-01T13:30:44;2.10;;;1.20;;
14847;SDS011;7516;43.570;1.448;2023-02-01T13:33:29;2.57;;;1.40;;
14847;SDS011;7516;43.570;1.448;2023-02-01T13:42:04;2.80;;;1.47;;
14847;SDS011;7516;43.570;1.448;2023-02-01T13:44:42;2.00;;;1.37;;
14847;SDS011;7516;43.570;1.448;2023-02-01T13:47:16;2.60;;;1.50;;
14847;SDS011;7516;43.570;1.448;2023-02-01T13:49:50;2.20;;;1.20;;
14847;SDS011;7516;43.570;1.448;2023-02-01T13:52:24;2.07;;;0.93;;
14847;SDS011;7516;43.570;1.448;2023-02-01T13:55:00;3.20;;;1.20;;
14847;SDS011;7516;43.570;1.448;2023-02-01T13:57:45;2.07;;;1.50;;
14847;SDS011;7516;43.570;1.448;2023-02-01T14:00:24;2.13;;;1.13;;
14847;SDS011;7516;43.570;1.448;2023-02-01T14:03:06;2.20;;;1.10;;
14847;SDS011;7516;43.570;1.448;2023-02-01T14:05:59;3.17;;;1.23;;
14847;SDS011;7516;43.570;1.448;2023-02-01T14:08:38;3.73;;;1.70;;
14847;SDS011;7516;43.570;1.448;2023-02-01T14:14:36;2.47;;;1.73;;
14847;SDS011;7516;43.570;1.448;2023-02-01T14:23:21;2.70;;;1.50;;
14847;SDS011;7516;43.570;1.448;2023-02-01T14:28:50;3.90;;;1.60;;
14847;SDS011;7516;43.570;1.448;2023-02-01T14:31:33;2.50;;;1.43;;
14847;SDS011;7516;43.570;1.448;2023-02-01T14:34:15;3.63;;;1.77;;
14847;SDS011;7516;43.570;1.448;2023-02-01T14:36:55;3.00;;;1.70;;
14847;SDS011;7516;43.570;1.448;2023-02-01T14:39:26;3.50;;;1.70;;
14847;SDS011;7516;43.570;1.448;2023-02-01T14:42:20;2.70;;;1.30;;
14847;SDS011;7516;43.570;1.448;2023-02-01T14:44:51;3.17;;;1.67;;
14847;SDS011;7516;43.570;1.448;2023-02-01T14:47:31;4.53;;;1.77;;
14847;SDS011;7516;43.570;1.448;2023-02-01T14:52:52;2.93;;;1.90;;
14847;SDS011;7516;43.570;1.448;2023-02-01T14:55:37;2.57;;;1.80;;
14847;SDS011;7516;43.570;1.448;2023-02-01T14:58:13;3.53;;;1.87;;
14847;SDS011;7516;43.570;1.448;2023-02-01T15:00:47;3.83;;;1.90;;
14847;SDS011;7516;43.570;1.448;2023-02-01T15:03:34;2.10;;;1.77;;
14847;SDS011;7516;43.570;1.448;2023-02-01T15:06:23;3.83;;;1.90;;
14847;SDS011;7516;43.570;1.448;2023-02-01T15:08:54;4.67;;;2.30;;
14847;SDS011;7516;43.570;1.448;2023-02-01T15:11:25;3.57;;;2.10;;
14847;SDS011;7516;43.570;1.448;2023-02-01T15:13:53;3.90;;;2.20;;
14847;SDS011;7516;43.570;1.448;2023-02-01T15:16:22;3.13;;;2.00;;
14847;SDS011;7516;43.570;1.448;2023-02-01T15:21:47;3.50;;;2.20;;
14847;SDS011;7516;43.570;1.448;2023-02-01T15:24:20;2.60;;;1.70;;
14847;SDS011;7516;43.570;1.448;2023-02-01T15:26:49;3.03;;;1.70;;
14847;SDS011;7516;43.570;1.448;2023-02-01T15:29:18;2.23;;;1.47;;
14847;SDS011;7516;43.570;1.448;2023-02-01T15:31:48;1.80;;;1.50;;
14847;SDS011;7516;43.570;1.448;2023-02-01T15:34:17;3.13;;;1.67;;
14847;SDS011;7516;43.570;1.448;2023-02-01T15:36:47;2.83;;;1.63;;
14847;SDS011;7516;43.570;1.448;2023-02-01T15:39:19;2.10;;;1.47;;
14847;SDS011;7516;43.570;1.448;2023-02-01T15:41:51;2.33;;;1.20;;
14847;SDS011;7516;43.570;1.448;2023-02-01T15:44:27;3.20;;;1.83;;
14847;SDS011;7516;43.570;1.448;2023-02-01T15:47:05;3.30;;;1.37;;
14847;SDS011;7516;43.570;1.448;2023-02-01T15:49:41;2.53;;;1.50;;
14847;SDS011;7516;43.570;1.448;2023-02-01T15:52:21;1.97;;;1.20;;
14847;SDS011;7516;43.570;1.448;2023-02-01T15:54:53;2.03;;;1.40;;
14847;SDS011;7516;43.570;1.448;2023-02-01T15:57:26;1.80;;;1.10;;
14847;SDS011;7516;43.570;1.448;2023-02-01T15:59:56;1.90;;;1.10;;
14847;SDS011;7516;43.570;1.448;2023-02-01T16:02:27;2.43;;;1.10;;
14847;SDS011;7516;43.570;1.448;2023-02-01T16:04:59;2.50;;;1.30;;